sensor_id;sensor_type;location;lat;lon;timestamp;P1;durP1;ratioP1;P2;durP2;ratioP2
58727;SDS011;44505;43.240;0.070;2022-12-07T00:01:07;30.90;;;16.92;;
58727;SDS011;44505;43.240;0.070;2022-12-07T00:03:33;24.50;;;15.02;;
58727;SDS011;44505;43.240;0.070;2022-12-07T00:05:58;30.98;;;17.80;;
58727;SDS011;44505;43.240;0.070;2022-12-07T00:08:24;104.85;;;49.22;;
58727;SDS011;44505;43.240;0.070;2022-12-07T00:10:49;143.73;;;66.03;;
58727;SDS011;44505;43.240;0.070;2022-12-07T00:13:15;111.22;;;51.95;;
58727;SDS011;44505;43.240;0.070;2022-12-07T00:15:40;76.78;;;36.58;;
58727;SDS011;44505;43.240;0.070;2022-12-07T00:18:06;35.03;;;18.48;;
58727;SDS011;44505;43.240;0.070;2022-12-07T00:20:31;29.60;;;16.85;;
58727;SDS011;44505;43.240;0.070;2022-12-07T00:22:58;109.93;;;47.95;;
58727;SDS011;44505;43.240;0.070;2022-12-07T00:25:23;27.77;;;16.50;;
58727;SDS011;44505;43.240;0.070;2022-12-07T00:27:49;32.85;;;19.45;;
58727;SDS011;44505;43.240;0.070;2022-12-07T00:30:14;91.28;;;47.05;;
58727;SDS011;44505;43.240;0.070;2022-12-07T00:32:40;90.85;;;47.42;;
58727;SDS011;44505;43.240;0.070;2022-12-07T00:35:05;47.75;;;27.10;;
58727;SDS011;44505;43.240;0.070;2022-12-07T00:37:31;30.33;;;17.98;;
58727;SDS011;44505;43.240;0.070;2022-12-07T00:39:56;18.08;;;12.48;;
58727;SDS011;44505;43.240;0.070;2022-12-07T00:42:21;18.13;;;12.23;;
58727;SDS011;44505;43.240;0.070;2022-12-07T00:44:47;18.05;;;12.52;;
58727;SDS011;44505;43.240;0.070;2022-12-07T00:47:12;35.45;;;21.27;;
58727;SDS011;44505;43.240;0.070;2022-12-07T00:49:37;28.08;;;20.08;;
58727;SDS011;44505;43.240;0.070;2022-12-07T00:52:03;67.10;;;38.65;;
58727;SDS011;44505;43.240;0.070;2022-12-07T00:54:28;58.08;;;36.25;;
58727;SDS011;44505;43.240;0.070;2022-12-07T00:56:54;42.60;;;24.92;;
58727;SDS011;44505;43.240;0.070;2022-12-07T00:59:19;36.45;;;21.02;;
58727;SDS011;44505;43.240;0.070;2022-12-07T01:01:44;29.30;;;19.27;;
58727;SDS011;44505;43.240;0.070;2022-12-07T01:04:10;30.67;;;19.42;;
58727;SDS011;44505;43.240;0.070;2022-12-07T01:06:35;35.40;;;24.10;;
58727;SDS011;44505;43.240;0.070;2022-12-07T01:09:01;46.20;;;31.88;;
58727;SDS011;44505;43.240;0.070;2022-12-07T01:11:27;71.55;;;43.88;;
58727;SDS011;44505;43.240;0.070;2022-12-07T01:13:54;77.55;;;44.25;;
58727;SDS011;44505;43.240;0.070;2022-12-07T01:16:20;82.70;;;46.28;;
58727;SDS011;44505;43.240;0.070;2022-12-07T01:18:46;53.33;;;35.00;;
58727;SDS011;44505;43.240;0.070;2022-12-07T01:21:13;27.50;;;19.88;;
58727;SDS011;44505;43.240;0.070;2022-12-07T01:23:39;20.42;;;13.48;;
58727;SDS011;44505;43.240;0.070;2022-12-07T01:26:06;18.48;;;12.75;;
58727;SDS011;44505;43.240;0.070;2022-12-07T01:28:32;16.48;;;12.70;;
58727;SDS011;44505;43.240;0.070;2022-12-07T01:31:02;19.38;;;14.15;;
58727;SDS011;44505;43.240;0.070;2022-12-07T01:33:29;22.58;;;15.27;;
58727;SDS011;44505;43.240;0.070;2022-12-07T01:35:57;68.60;;;37.95;;
58727;SDS011;44505;43.240;0.070;2022-12-07T01:38:25;31.08;;;21.80;;
58727;SDS011;44505;43.240;0.070;2022-12-07T01:40:54;91.25;;;54.90;;
58727;SDS011;44505;43.240;0.070;2022-12-07T01:43:19;66.20;;;40.85;;
58727;SDS011;44505;43.240;0.070;2022-12-07T01:45:45;64.43;;;40.50;;
58727;SDS011;44505;43.240;0.070;2022-12-07T01:48:11;46.92;;;29.65;;
58727;SDS011;44505;43.240;0.070;2022-12-07T01:50:37;141.30;;;80.72;;
58727;SDS011;44505;43.240;0.070;2022-12-07T01:53:04;78.20;;;48.92;;
58727;SDS011;44505;43.240;0.070;2022-12-07T01:55:31;46.28;;;32.72;;
58727;SDS011;44505;43.240;0.070;2022-12-07T01:57:57;51.97;;;32.50;;
58727;SDS011;44505;43.240;0.070;2022-12-07T02:00:23;56.88;;;34.13;;
58727;SDS011;44505;43.240;0.070;2022-12-07T02:05:13;83.28;;;49.42;;
58727;SDS011;44505;43.240;0.070;2022-12-07T02:07:39;82.50;;;46.25;;
58727;SDS011;44505;43.240;0.070;2022-12-07T02:10:13;49.25;;;32.35;;
58727;SDS011;44505;43.240;0.070;2022-12-07T02:12:39;37.42;;;24.40;;
58727;SDS011;44505;43.240;0.070;2022-12-07T02:15:05;34.33;;;21.58;;
58727;SDS011;44505;43.240;0.070;2022-12-07T02:20:18;27.23;;;17.33;;
58727;SDS011;44505;43.240;0.070;2022-12-07T02:28:36;11.57;;;9.15;;
58727;SDS011;44505;43.240;0.070;2022-12-07T02:30:43;11.48;;;9.50;;
58727;SDS011;44505;43.240;0.070;2022-12-07T02:33:17;10.77;;;8.65;;
58727;SDS011;44505;43.240;0.070;2022-12-07T02:35:45;12.35;;;8.88;;
58727;SDS011;44505;43.240;0.070;2022-12-07T02:40:40;9.88;;;8.65;;
58727;SDS011;44505;43.240;0.070;2022-12-07T02:43:08;9.90;;;7.85;;
58727;SDS011;44505;43.240;0.070;2022-12-07T02:45:36;10.05;;;7.88;;
58727;SDS011;44505;43.240;0.070;2022-12-07T02:48:02;9.35;;;7.43;;
58727;SDS011;44505;43.240;0.070;2022-12-07T02:50:29;12.02;;;9.27;;
58727;SDS011;44505;43.240;0.070;2022-12-07T02:52:54;9.80;;;8.77;;
58727;SDS011;44505;43.240;0.070;2022-12-07T02:55:21;10.00;;;8.55;;
58727;SDS011;44505;43.240;0.070;2022-12-07T02:57:59;8.05;;;6.95;;
58727;SDS011;44505;43.240;0.070;2022-12-07T03:00:27;10.13;;;7.05;;
58727;SDS011;44505;43.240;0.070;2022-12-07T03:17:56;9.85;;;7.90;;
58727;SDS011;44505;43.240;0.070;2022-12-07T03:20:23;10.77;;;8.00;;
58727;SDS011;44505;43.240;0.070;2022-12-07T03:22:50;9.98;;;8.40;;
58727;SDS011;44505;43.240;0.070;2022-12-07T03:25:16;9.65;;;8.65;;
58727;SDS011;44505;43.240;0.070;2022-12-07T03:27:55;12.13;;;9.73;;
58727;SDS011;44505;43.240;0.070;2022-12-07T03:30:23;11.07;;;9.23;;
58727;SDS011;44505;43.240;0.070;2022-12-07T03:33:01;10.20;;;9.18;;
58727;SDS011;44505;43.240;0.070;2022-12-07T03:35:29;11.13;;;8.60;;
58727;SDS011;44505;43.240;0.070;2022-12-07T03:40:35;11.32;;;9.35;;
58727;SDS011;44505;43.240;0.070;2022-12-07T03:43:02;27.10;;;17.63;;
58727;SDS011;44505;43.240;0.070;2022-12-07T03:45:55;23.73;;;13.50;;
58727;SDS011;44505;43.240;0.070;2022-12-07T03:48:18;10.60;;;7.90;;
58727;SDS011;44505;43.240;0.070;2022-12-07T03:53:46;7.85;;;7.05;;
58727;SDS011;44505;43.240;0.070;2022-12-07T03:56:13;9.88;;;7.55;;
58727;SDS011;44505;43.240;0.070;2022-12-07T03:58:39;9.77;;;8.00;;
58727;SDS011;44505;43.240;0.070;2022-12-07T04:01:05;10.32;;;8.55;;
58727;SDS011;44505;43.240;0.070;2022-12-07T04:03:30;13.70;;;9.35;;
58727;SDS011;44505;43.240;0.070;2022-12-07T04:05:55;12.30;;;9.73;;
58727;SDS011;44505;43.240;0.070;2022-12-07T04:08:23;12.07;;;9.30;;
58727;SDS011;44505;43.240;0.070;2022-12-07T04:10:48;12.82;;;8.98;;
58727;SDS011;44505;43.240;0.070;2022-12-07T04:13:14;19.83;;;13.88;;
58727;SDS011;44505;43.240;0.070;2022-12-07T04:15:40;37.67;;;21.20;;
58727;SDS011;44505;43.240;0.070;2022-12-07T04:18:05;44.35;;;24.58;;
58727;SDS011;44505;43.240;0.070;2022-12-07T04:20:31;19.33;;;12.73;;
58727;SDS011;44505;43.240;0.070;2022-12-07T04:22:56;13.32;;;9.10;;
58727;SDS011;44505;43.240;0.070;2022-12-07T04:25:21;13.43;;;8.77;;
58727;SDS011;44505;43.240;0.070;2022-12-07T04:27:47;11.98;;;8.60;;
58727;SDS011;44505;43.240;0.070;2022-12-07T04:30:12;8.75;;;7.85;;
58727;SDS011;44505;43.240;0.070;2022-12-07T04:32:38;8.82;;;7.90;;
58727;SDS011;44505;43.240;0.070;2022-12-07T04:35:03;10.13;;;7.57;;
58727;SDS011;44505;43.240;0.070;2022-12-07T04:37:29;12.90;;;9.93;;
58727;SDS011;44505;43.240;0.070;2022-12-07T04:39:54;13.75;;;10.02;;
58727;SDS011;44505;43.240;0.070;2022-12-07T04:42:19;12.00;;;8.13;;
58727;SDS011;44505;43.240;0.070;2022-12-07T04:44:45;10.43;;;7.95;;
58727;SDS011;44505;43.240;0.070;2022-12-07T04:47:10;8.75;;;7.43;;
58727;SDS011;44505;43.240;0.070;2022-12-07T04:49:36;9.55;;;7.32;;
58727;SDS011;44505;43.240;0.070;2022-12-07T04:52:01;9.73;;;7.05;;
58727;SDS011;44505;43.240;0.070;2022-12-07T04:54:26;28.48;;;15.63;;
58727;SDS011;44505;43.240;0.070;2022-12-07T04:56:52;23.98;;;15.55;;
58727;SDS011;44505;43.240;0.070;2022-12-07T04:59:17;19.38;;;10.80;;
58727;SDS011;44505;43.240;0.070;2022-12-07T05:01:43;14.63;;;10.05;;
58727;SDS011;44505;43.240;0.070;2022-12-07T05:04:08;14.18;;;9.75;;
58727;SDS011;44505;43.240;0.070;2022-12-07T05:06:34;10.93;;;7.90;;
58727;SDS011;44505;43.240;0.070;2022-12-07T05:09:00;12.40;;;8.85;;
58727;SDS011;44505;43.240;0.070;2022-12-07T05:11:25;15.13;;;10.25;;
58727;SDS011;44505;43.240;0.070;2022-12-07T05:14:15;17.77;;;9.80;;
58727;SDS011;44505;43.240;0.070;2022-12-07T05:16:41;9.18;;;7.80;;
58727;SDS011;44505;43.240;0.070;2022-12-07T05:19:07;7.63;;;6.82;;
58727;SDS011;44505;43.240;0.070;2022-12-07T05:21:32;10.35;;;7.40;;
58727;SDS011;44505;43.240;0.070;2022-12-07T05:23:58;13.25;;;8.48;;
58727;SDS011;44505;43.240;0.070;2022-12-07T05:26:23;25.38;;;12.23;;
58727;SDS011;44505;43.240;0.070;2022-12-07T05:28:52;20.42;;;11.05;;
58727;SDS011;44505;43.240;0.070;2022-12-07T05:31:17;16.02;;;10.40;;
58727;SDS011;44505;43.240;0.070;2022-12-07T05:33:43;10.88;;;8.07;;
58727;SDS011;44505;43.240;0.070;2022-12-07T05:36:08;10.15;;;7.70;;
58727;SDS011;44505;43.240;0.070;2022-12-07T05:38:34;12.15;;;8.88;;
58727;SDS011;44505;43.240;0.070;2022-12-07T05:41:00;8.23;;;5.57;;
58727;SDS011;44505;43.240;0.070;2022-12-07T05:43:26;8.13;;;6.22;;
58727;SDS011;44505;43.240;0.070;2022-12-07T05:45:52;7.95;;;6.90;;
58727;SDS011;44505;43.240;0.070;2022-12-07T05:48:17;10.77;;;8.73;;
58727;SDS011;44505;43.240;0.070;2022-12-07T05:50:42;21.02;;;11.77;;
58727;SDS011;44505;43.240;0.070;2022-12-07T05:53:08;11.35;;;8.48;;
58727;SDS011;44505;43.240;0.070;2022-12-07T05:55:33;7.38;;;6.00;;
58727;SDS011;44505;43.240;0.070;2022-12-07T05:57:58;8.25;;;6.10;;
58727;SDS011;44505;43.240;0.070;2022-12-07T06:00:42;7.47;;;6.25;;
58727;SDS011;44505;43.240;0.070;2022-12-07T06:03:07;7.55;;;6.13;;
58727;SDS011;44505;43.240;0.070;2022-12-07T06:05:33;8.27;;;6.20;;
58727;SDS011;44505;43.240;0.070;2022-12-07T06:08:01;9.10;;;6.55;;
58727;SDS011;44505;43.240;0.070;2022-12-07T06:10:27;9.32;;;6.32;;
58727;SDS011;44505;43.240;0.070;2022-12-07T06:12:52;8.65;;;6.35;;
58727;SDS011;44505;43.240;0.070;2022-12-07T06:15:18;10.90;;;6.75;;
58727;SDS011;44505;43.240;0.070;2022-12-07T06:17:43;12.35;;;6.75;;
58727;SDS011;44505;43.240;0.070;2022-12-07T06:20:08;8.30;;;6.03;;
58727;SDS011;44505;43.240;0.070;2022-12-07T06:22:34;8.98;;;6.57;;
58727;SDS011;44505;43.240;0.070;2022-12-07T06:24:59;9.05;;;6.55;;
58727;SDS011;44505;43.240;0.070;2022-12-07T06:27:26;10.25;;;6.30;;
58727;SDS011;44505;43.240;0.070;2022-12-07T06:29:51;9.85;;;5.93;;
58727;SDS011;44505;43.240;0.070;2022-12-07T06:32:17;7.65;;;6.45;;
58727;SDS011;44505;43.240;0.070;2022-12-07T06:34:42;11.32;;;6.45;;
58727;SDS011;44505;43.240;0.070;2022-12-07T06:37:07;9.60;;;7.50;;
58727;SDS011;44505;43.240;0.070;2022-12-07T06:39:33;7.38;;;6.50;;
58727;SDS011;44505;43.240;0.070;2022-12-07T06:41:58;9.43;;;6.00;;
58727;SDS011;44505;43.240;0.070;2022-12-07T06:44:24;9.63;;;6.88;;
58727;SDS011;44505;43.240;0.070;2022-12-07T06:46:50;9.73;;;6.55;;
58727;SDS011;44505;43.240;0.070;2022-12-07T06:49:15;9.77;;;6.63;;
58727;SDS011;44505;43.240;0.070;2022-12-07T06:51:41;10.93;;;8.00;;
58727;SDS011;44505;43.240;0.070;2022-12-07T06:54:08;11.13;;;8.02;;
58727;SDS011;44505;43.240;0.070;2022-12-07T06:56:33;12.18;;;8.07;;
58727;SDS011;44505;43.240;0.070;2022-12-07T06:58:59;10.25;;;6.90;;
58727;SDS011;44505;43.240;0.070;2022-12-07T07:01:24;10.05;;;7.53;;
58727;SDS011;44505;43.240;0.070;2022-12-07T07:03:49;15.23;;;8.43;;
58727;SDS011;44505;43.240;0.070;2022-12-07T07:06:15;13.27;;;9.35;;
58727;SDS011;44505;43.240;0.070;2022-12-07T07:08:40;14.35;;;8.70;;
58727;SDS011;44505;43.240;0.070;2022-12-07T07:11:06;14.68;;;10.60;;
58727;SDS011;44505;43.240;0.070;2022-12-07T07:13:32;11.88;;;8.98;;
58727;SDS011;44505;43.240;0.070;2022-12-07T07:15:58;12.18;;;8.07;;
58727;SDS011;44505;43.240;0.070;2022-12-07T07:18:23;14.27;;;8.23;;
58727;SDS011;44505;43.240;0.070;2022-12-07T07:20:50;20.38;;;10.10;;
58727;SDS011;44505;43.240;0.070;2022-12-07T07:23:15;19.30;;;11.02;;
58727;SDS011;44505;43.240;0.070;2022-12-07T07:25:41;16.98;;;10.60;;
58727;SDS011;44505;43.240;0.070;2022-12-07T07:28:06;20.27;;;12.02;;
58727;SDS011;44505;43.240;0.070;2022-12-07T07:30:32;18.85;;;10.38;;
58727;SDS011;44505;43.240;0.070;2022-12-07T07:32:57;15.48;;;9.70;;
58727;SDS011;44505;43.240;0.070;2022-12-07T07:35:23;17.77;;;9.40;;
58727;SDS011;44505;43.240;0.070;2022-12-07T07:37:49;51.03;;;31.63;;
58727;SDS011;44505;43.240;0.070;2022-12-07T07:40:14;23.83;;;14.55;;
58727;SDS011;44505;43.240;0.070;2022-12-07T07:42:40;22.60;;;9.82;;
58727;SDS011;44505;43.240;0.070;2022-12-07T07:45:05;30.63;;;18.27;;
58727;SDS011;44505;43.240;0.070;2022-12-07T07:47:31;38.42;;;22.85;;
58727;SDS011;44505;43.240;0.070;2022-12-07T07:49:56;28.40;;;15.80;;
58727;SDS011;44505;43.240;0.070;2022-12-07T07:52:22;36.00;;;18.35;;
58727;SDS011;44505;43.240;0.070;2022-12-07T07:54:47;27.15;;;13.82;;
58727;SDS011;44505;43.240;0.070;2022-12-07T07:57:13;20.33;;;12.20;;
58727;SDS011;44505;43.240;0.070;2022-12-07T07:59:38;17.85;;;11.07;;
58727;SDS011;44505;43.240;0.070;2022-12-07T08:02:03;18.85;;;10.90;;
58727;SDS011;44505;43.240;0.070;2022-12-07T08:04:29;13.27;;;8.50;;
58727;SDS011;44505;43.240;0.070;2022-12-07T08:06:54;11.90;;;7.10;;
58727;SDS011;44505;43.240;0.070;2022-12-07T08:09:20;11.00;;;8.15;;
58727;SDS011;44505;43.240;0.070;2022-12-07T08:11:45;10.85;;;6.50;;
58727;SDS011;44505;43.240;0.070;2022-12-07T08:14:10;13.77;;;9.90;;
58727;SDS011;44505;43.240;0.070;2022-12-07T08:16:37;26.13;;;14.63;;
58727;SDS011;44505;43.240;0.070;2022-12-07T08:19:04;34.17;;;16.33;;
58727;SDS011;44505;43.240;0.070;2022-12-07T08:21:29;35.70;;;19.38;;
58727;SDS011;44505;43.240;0.070;2022-12-07T08:23:54;40.05;;;23.48;;
58727;SDS011;44505;43.240;0.070;2022-12-07T08:26:20;36.70;;;22.52;;
58727;SDS011;44505;43.240;0.070;2022-12-07T08:28:45;30.45;;;20.55;;
58727;SDS011;44505;43.240;0.070;2022-12-07T08:31:12;46.13;;;30.42;;
58727;SDS011;44505;43.240;0.070;2022-12-07T08:33:37;42.38;;;27.75;;
58727;SDS011;44505;43.240;0.070;2022-12-07T08:36:04;54.63;;;35.20;;
58727;SDS011;44505;43.240;0.070;2022-12-07T08:38:29;34.25;;;23.58;;
58727;SDS011;44505;43.240;0.070;2022-12-07T08:40:58;19.30;;;14.38;;
58727;SDS011;44505;43.240;0.070;2022-12-07T08:43:24;15.73;;;12.43;;
58727;SDS011;44505;43.240;0.070;2022-12-07T08:46:09;18.95;;;11.90;;
58727;SDS011;44505;43.240;0.070;2022-12-07T08:48:41;19.67;;;12.20;;
58727;SDS011;44505;43.240;0.070;2022-12-07T08:51:09;17.15;;;12.93;;
58727;SDS011;44505;43.240;0.070;2022-12-07T08:53:34;18.67;;;13.57;;
58727;SDS011;44505;43.240;0.070;2022-12-07T08:56:00;50.03;;;32.15;;
58727;SDS011;44505;43.240;0.070;2022-12-07T08:58:26;42.72;;;29.13;;
58727;SDS011;44505;43.240;0.070;2022-12-07T09:00:51;32.88;;;23.85;;
58727;SDS011;44505;43.240;0.070;2022-12-07T09:03:17;17.00;;;13.52;;
58727;SDS011;44505;43.240;0.070;2022-12-07T09:05:42;13.65;;;10.93;;
58727;SDS011;44505;43.240;0.070;2022-12-07T09:08:08;9.32;;;8.43;;
58727;SDS011;44505;43.240;0.070;2022-12-07T09:10:33;11.52;;;7.82;;
58727;SDS011;44505;43.240;0.070;2022-12-07T09:12:59;8.50;;;7.07;;
58727;SDS011;44505;43.240;0.070;2022-12-07T09:15:26;9.52;;;8.52;;
58727;SDS011;44505;43.240;0.070;2022-12-07T09:17:52;15.20;;;11.30;;
58727;SDS011;44505;43.240;0.070;2022-12-07T09:20:17;12.43;;;11.13;;
58727;SDS011;44505;43.240;0.070;2022-12-07T09:22:43;13.02;;;8.73;;
58727;SDS011;44505;43.240;0.070;2022-12-07T09:25:08;7.82;;;6.13;;
58727;SDS011;44505;43.240;0.070;2022-12-07T09:27:34;7.45;;;6.68;;
58727;SDS011;44505;43.240;0.070;2022-12-07T09:29:59;10.90;;;7.60;;
58727;SDS011;44505;43.240;0.070;2022-12-07T09:32:25;11.07;;;8.70;;
58727;SDS011;44505;43.240;0.070;2022-12-07T09:34:51;9.20;;;6.53;;
58727;SDS011;44505;43.240;0.070;2022-12-07T09:37:17;7.57;;;6.18;;
58727;SDS011;44505;43.240;0.070;2022-12-07T09:39:42;8.05;;;5.80;;
58727;SDS011;44505;43.240;0.070;2022-12-07T09:44:36;10.93;;;8.40;;
58727;SDS011;44505;43.240;0.070;2022-12-07T09:47:02;20.48;;;14.75;;
58727;SDS011;44505;43.240;0.070;2022-12-07T09:49:29;9.93;;;7.55;;
58727;SDS011;44505;43.240;0.070;2022-12-07T09:52:00;8.98;;;5.50;;
58727;SDS011;44505;43.240;0.070;2022-12-07T09:54:26;6.32;;;5.53;;
58727;SDS011;44505;43.240;0.070;2022-12-07T09:56:51;20.42;;;15.60;;
58727;SDS011;44505;43.240;0.070;2022-12-07T09:59:18;23.35;;;15.25;;
58727;SDS011;44505;43.240;0.070;2022-12-07T10:01:45;24.73;;;11.50;;
58727;SDS011;44505;43.240;0.070;2022-12-07T10:04:22;17.92;;;11.63;;
58727;SDS011;44505;43.240;0.070;2022-12-07T10:06:49;14.93;;;9.98;;
58727;SDS011;44505;43.240;0.070;2022-12-07T10:09:17;10.70;;;6.97;;
58727;SDS011;44505;43.240;0.070;2022-12-07T10:11:59;9.18;;;5.47;;
58727;SDS011;44505;43.240;0.070;2022-12-07T10:14:24;7.68;;;4.40;;
58727;SDS011;44505;43.240;0.070;2022-12-07T10:16:52;8.35;;;6.40;;
58727;SDS011;44505;43.240;0.070;2022-12-07T10:19:18;11.60;;;8.30;;
58727;SDS011;44505;43.240;0.070;2022-12-07T10:24:29;8.48;;;6.72;;
58727;SDS011;44505;43.240;0.070;2022-12-07T10:26:55;12.85;;;9.18;;
58727;SDS011;44505;43.240;0.070;2022-12-07T10:29:22;6.80;;;5.18;;
58727;SDS011;44505;43.240;0.070;2022-12-07T10:31:55;8.00;;;6.28;;
58727;SDS011;44505;43.240;0.070;2022-12-07T10:34:22;9.18;;;5.85;;
58727;SDS011;44505;43.240;0.070;2022-12-07T10:36:52;9.95;;;6.60;;
58727;SDS011;44505;43.240;0.070;2022-12-07T10:39:19;15.10;;;9.20;;
58727;SDS011;44505;43.240;0.070;2022-12-07T10:42:00;18.20;;;11.50;;
58727;SDS011;44505;43.240;0.070;2022-12-07T10:44:30;11.00;;;6.97;;
58727;SDS011;44505;43.240;0.070;2022-12-07T11:02:17;2.83;;;2.15;;
58727;SDS011;44505;43.240;0.070;2022-12-07T11:05:05;1.63;;;1.52;;
58727;SDS011;44505;43.240;0.070;2022-12-07T11:10:09;1.98;;;1.42;;
58727;SDS011;44505;43.240;0.070;2022-12-07T11:17:52;1.58;;;1.33;;
58727;SDS011;44505;43.240;0.070;2022-12-07T11:23:14;2.15;;;2.00;;
58727;SDS011;44505;43.240;0.070;2022-12-07T11:25:53;2.90;;;2.50;;
58727;SDS011;44505;43.240;0.070;2022-12-07T11:30:59;3.42;;;3.13;;
58727;SDS011;44505;43.240;0.070;2022-12-07T11:33:33;2.03;;;1.60;;
58727;SDS011;44505;43.240;0.070;2022-12-07T11:38:50;7.63;;;6.82;;
58727;SDS011;44505;43.240;0.070;2022-12-07T11:41:16;4.70;;;4.30;;
58727;SDS011;44505;43.240;0.070;2022-12-07T11:46:51;5.38;;;2.53;;
58727;SDS011;44505;43.240;0.070;2022-12-07T11:51:54;1.50;;;1.40;;
58727;SDS011;44505;43.240;0.070;2022-12-07T11:54:25;2.15;;;1.60;;
58727;SDS011;44505;43.240;0.070;2022-12-07T11:56:52;4.40;;;1.33;;
58727;SDS011;44505;43.240;0.070;2022-12-07T12:06:39;2.42;;;1.23;;
58727;SDS011;44505;43.240;0.070;2022-12-07T12:12:04;1.85;;;1.33;;
58727;SDS011;44505;43.240;0.070;2022-12-07T12:22:17;2.92;;;1.38;;
58727;SDS011;44505;43.240;0.070;2022-12-07T12:24:44;7.65;;;2.17;;
58727;SDS011;44505;43.240;0.070;2022-12-07T12:27:32;6.38;;;2.30;;
58727;SDS011;44505;43.240;0.070;2022-12-07T12:29:57;10.27;;;3.15;;
58727;SDS011;44505;43.240;0.070;2022-12-07T12:32:28;3.65;;;1.85;;
58727;SDS011;44505;43.240;0.070;2022-12-07T12:42:49;2.70;;;1.50;;
58727;SDS011;44505;43.240;0.070;2022-12-07T12:45:49;6.47;;;2.45;;
58727;SDS011;44505;43.240;0.070;2022-12-07T12:51:06;5.72;;;2.47;;
58727;SDS011;44505;43.240;0.070;2022-12-07T12:53:36;2.28;;;2.00;;
58727;SDS011;44505;43.240;0.070;2022-12-07T12:58:46;1.88;;;1.35;;
58727;SDS011;44505;43.240;0.070;2022-12-07T13:03:57;2.03;;;1.85;;
58727;SDS011;44505;43.240;0.070;2022-12-07T13:08:54;4.35;;;2.22;;
58727;SDS011;44505;43.240;0.070;2022-12-07T13:11:37;4.45;;;2.30;;
58727;SDS011;44505;43.240;0.070;2022-12-07T13:16:49;2.70;;;2.17;;
58727;SDS011;44505;43.240;0.070;2022-12-07T13:19:52;3.50;;;1.80;;
58727;SDS011;44505;43.240;0.070;2022-12-07T13:27:55;1.93;;;1.80;;
58727;SDS011;44505;43.240;0.070;2022-12-07T13:30:22;2.05;;;1.52;;
58727;SDS011;44505;43.240;0.070;2022-12-07T13:32:52;1.90;;;1.80;;
58727;SDS011;44505;43.240;0.070;2022-12-07T13:35:31;1.92;;;1.83;;
58727;SDS011;44505;43.240;0.070;2022-12-07T13:37:57;2.03;;;1.85;;
58727;SDS011;44505;43.240;0.070;2022-12-07T13:40:22;3.35;;;2.20;;
58727;SDS011;44505;43.240;0.070;2022-12-07T13:42:56;2.50;;;1.77;;
58727;SDS011;44505;43.240;0.070;2022-12-07T13:45:23;1.98;;;1.48;;
58727;SDS011;44505;43.240;0.070;2022-12-07T13:48:14;1.90;;;1.70;;
58727;SDS011;44505;43.240;0.070;2022-12-07T13:50:40;2.28;;;2.08;;
58727;SDS011;44505;43.240;0.070;2022-12-07T13:53:07;3.08;;;2.10;;
58727;SDS011;44505;43.240;0.070;2022-12-07T13:55:36;3.63;;;2.67;;
58727;SDS011;44505;43.240;0.070;2022-12-07T13:58:08;5.15;;;2.42;;
58727;SDS011;44505;43.240;0.070;2022-12-07T14:00:34;6.28;;;2.67;;
58727;SDS011;44505;43.240;0.070;2022-12-07T14:03:00;3.97;;;2.42;;
58727;SDS011;44505;43.240;0.070;2022-12-07T14:05:29;5.05;;;3.13;;
58727;SDS011;44505;43.240;0.070;2022-12-07T14:10:25;3.53;;;2.28;;
58727;SDS011;44505;43.240;0.070;2022-12-07T14:12:51;3.15;;;2.50;;
58727;SDS011;44505;43.240;0.070;2022-12-07T14:15:24;3.42;;;2.47;;
58727;SDS011;44505;43.240;0.070;2022-12-07T14:17:51;5.63;;;3.28;;
58727;SDS011;44505;43.240;0.070;2022-12-07T14:23:01;3.65;;;2.67;;
58727;SDS011;44505;43.240;0.070;2022-12-07T14:26:03;5.32;;;3.28;;
58727;SDS011;44505;43.240;0.070;2022-12-07T14:28:27;4.90;;;3.20;;
58727;SDS011;44505;43.240;0.070;2022-12-07T14:30:52;4.57;;;3.45;;
58727;SDS011;44505;43.240;0.070;2022-12-07T14:33:18;5.00;;;3.25;;
58727;SDS011;44505;43.240;0.070;2022-12-07T14:35:43;3.78;;;3.20;;
58727;SDS011;44505;43.240;0.070;2022-12-07T14:38:09;4.40;;;3.35;;
58727;SDS011;44505;43.240;0.070;2022-12-07T14:40:34;4.90;;;3.70;;
58727;SDS011;44505;43.240;0.070;2022-12-07T14:43:00;6.13;;;3.45;;
58727;SDS011;44505;43.240;0.070;2022-12-07T14:45:27;3.90;;;3.50;;
58727;SDS011;44505;43.240;0.070;2022-12-07T14:47:52;8.75;;;3.85;;
58727;SDS011;44505;43.240;0.070;2022-12-07T14:50:18;6.68;;;4.00;;
58727;SDS011;44505;43.240;0.070;2022-12-07T14:52:47;3.90;;;3.50;;
58727;SDS011;44505;43.240;0.070;2022-12-07T14:55:14;3.90;;;3.60;;
58727;SDS011;44505;43.240;0.070;2022-12-07T14:57:41;3.88;;;3.50;;
58727;SDS011;44505;43.240;0.070;2022-12-07T15:00:07;3.90;;;3.50;;
58727;SDS011;44505;43.240;0.070;2022-12-07T15:02:33;3.63;;;3.28;;
58727;SDS011;44505;43.240;0.070;2022-12-07T15:04:58;3.60;;;3.30;;
58727;SDS011;44505;43.240;0.070;2022-12-07T15:07:24;7.43;;;5.03;;
58727;SDS011;44505;43.240;0.070;2022-12-07T15:09:50;5.13;;;3.90;;
58727;SDS011;44505;43.240;0.070;2022-12-07T15:12:16;3.83;;;3.35;;
58727;SDS011;44505;43.240;0.070;2022-12-07T15:14:41;3.25;;;3.00;;
58727;SDS011;44505;43.240;0.070;2022-12-07T15:17:07;3.60;;;3.30;;
58727;SDS011;44505;43.240;0.070;2022-12-07T15:19:35;5.30;;;3.38;;
58727;SDS011;44505;43.240;0.070;2022-12-07T15:22:00;4.07;;;3.67;;
58727;SDS011;44505;43.240;0.070;2022-12-07T15:24:26;6.80;;;3.83;;
58727;SDS011;44505;43.240;0.070;2022-12-07T15:26:51;4.90;;;4.07;;
58727;SDS011;44505;43.240;0.070;2022-12-07T15:29:17;5.18;;;3.88;;
58727;SDS011;44505;43.240;0.070;2022-12-07T15:31:42;4.70;;;3.50;;
58727;SDS011;44505;43.240;0.070;2022-12-07T15:34:08;5.00;;;3.20;;
58727;SDS011;44505;43.240;0.070;2022-12-07T15:36:33;4.72;;;3.58;;
58727;SDS011;44505;43.240;0.070;2022-12-07T15:38:59;4.47;;;3.72;;
58727;SDS011;44505;43.240;0.070;2022-12-07T15:41:24;5.85;;;4.13;;
58727;SDS011;44505;43.240;0.070;2022-12-07T15:43:50;4.07;;;3.67;;
58727;SDS011;44505;43.240;0.070;2022-12-07T15:46:35;7.15;;;4.43;;
58727;SDS011;44505;43.240;0.070;2022-12-07T15:49:01;8.47;;;4.40;;
58727;SDS011;44505;43.240;0.070;2022-12-07T15:51:26;4.03;;;3.45;;
58727;SDS011;44505;43.240;0.070;2022-12-07T15:53:52;4.57;;;3.10;;
58727;SDS011;44505;43.240;0.070;2022-12-07T15:56:17;5.60;;;3.40;;
58727;SDS011;44505;43.240;0.070;2022-12-07T15:58:43;5.10;;;3.25;;
58727;SDS011;44505;43.240;0.070;2022-12-07T16:01:12;6.10;;;3.70;;
58727;SDS011;44505;43.240;0.070;2022-12-07T16:03:38;4.20;;;3.80;;
58727;SDS011;44505;43.240;0.070;2022-12-07T16:06:04;5.82;;;4.30;;
58727;SDS011;44505;43.240;0.070;2022-12-07T16:08:30;6.63;;;5.45;;
58727;SDS011;44505;43.240;0.070;2022-12-07T16:10:55;7.72;;;6.20;;
58727;SDS011;44505;43.240;0.070;2022-12-07T16:13:20;5.57;;;4.70;;
58727;SDS011;44505;43.240;0.070;2022-12-07T16:15:46;5.03;;;4.57;;
58727;SDS011;44505;43.240;0.070;2022-12-07T16:18:12;13.07;;;7.20;;
58727;SDS011;44505;43.240;0.070;2022-12-07T16:20:37;17.55;;;6.18;;
58727;SDS011;44505;43.240;0.070;2022-12-07T16:23:03;5.55;;;4.05;;
58727;SDS011;44505;43.240;0.070;2022-12-07T16:25:28;5.90;;;5.30;;
58727;SDS011;44505;43.240;0.070;2022-12-07T16:27:54;5.18;;;4.68;;
58727;SDS011;44505;43.240;0.070;2022-12-07T16:30:19;5.05;;;4.40;;
58727;SDS011;44505;43.240;0.070;2022-12-07T16:32:45;5.50;;;4.70;;
58727;SDS011;44505;43.240;0.070;2022-12-07T16:35:11;6.60;;;5.10;;
58727;SDS011;44505;43.240;0.070;2022-12-07T16:37:36;7.38;;;6.30;;
58727;SDS011;44505;43.240;0.070;2022-12-07T16:40:02;9.05;;;5.63;;
58727;SDS011;44505;43.240;0.070;2022-12-07T16:42:31;7.63;;;6.82;;